sensor_id;sensor_type;location;lat;lon;timestamp;temperature;humidity
74364;DHT22;62797;49.740;10.154;2023-04-21T00:01:40;8.70;74.80
74364;DHT22;62797;49.740;10.154;2023-04-21T00:04:05;8.70;74.50
74364;DHT22;62797;49.740;10.154;2023-04-21T00:06:31;8.70;74.20
74364;DHT22;62797;49.740;10.154;2023-04-21T00:08:57;8.70;74.20
74364;DHT22;62797;49.740;10.154;2023-04-21T00:11:23;8.70;74.10
74364;DHT22;62797;49.740;10.154;2023-04-21T00:13:48;8.70;74.00
74364;DHT22;62797;49.740;10.154;2023-04-21T00:16:14;8.70;73.40
74364;DHT22;62797;49.740;10.154;2023-04-21T00:18:40;8.70;74.70
74364;DHT22;62797;49.740;10.154;2023-04-21T00:21:05;8.70;75.10
74364;DHT22;62797;49.740;10.154;2023-04-21T00:23:34;8.60;74.80
74364;DHT22;62797;49.740;10.154;2023-04-21T00:25:59;8.60;75.00
74364;DHT22;62797;49.740;10.154;2023-04-21T00:28:27;8.60;74.80
74364;DHT22;62797;49.740;10.154;2023-04-21T00:30:53;8.50;74.80
74364;DHT22;62797;49.740;10.154;2023-04-21T00:33:18;8.60;74.80
74364;DHT22;62797;49.740;10.154;2023-04-21T00:35:44;8.60;75.00
74364;DHT22;62797;49.740;10.154;2023-04-21T00:38:10;8.60;74.90
74364;DHT22;62797;49.740;10.154;2023-04-21T00:40:35;8.60;75.20
74364;DHT22;62797;49.740;10.154;2023-04-21T00:43:06;8.60;75.30
74364;DHT22;62797;49.740;10.154;2023-04-21T00:45:32;8.60;75.20
74364;DHT22;62797;49.740;10.154;2023-04-21T00:47:58;8.60;74.80
74364;DHT22;62797;49.740;10.154;2023-04-21T00:50:24;8.60;74.70
74364;DHT22;62797;49.740;10.154;2023-04-21T00:52:50;8.60;74.40
74364;DHT22;62797;49.740;10.154;2023-04-21T00:55:15;8.60;74.20
74364;DHT22;62797;49.740;10.154;2023-04-21T00:57:42;8.60;72.60
74364;DHT22;62797;49.740;10.154;2023-04-21T01:00:09;8.50;73.10
74364;DHT22;62797;49.740;10.154;2023-04-21T01:02:35;8.50;73.60
74364;DHT22;62797;49.740;10.154;2023-04-21T01:05:04;8.40;74.50
74364;DHT22;62797;49.740;10.154;2023-04-21T01:07:31;8.40;76.00
74364;DHT22;62797;49.740;10.154;2023-04-21T01:09:57;8.40;75.80
74364;DHT22;62797;49.740;10.154;2023-04-21T01:12:24;8.40;75.60
74364;DHT22;62797;49.740;10.154;2023-04-21T01:14:50;8.50;75.70
74364;DHT22;62797;49.740;10.154;2023-04-21T01:17:16;8.50;75.00
74364;DHT22;62797;49.740;10.154;2023-04-21T01:19:46;8.60;74.30
74364;DHT22;62797;49.740;10.154;2023-04-21T01:22:12;8.70;74.10
74364;DHT22;62797;49.740;10.154;2023-04-21T01:24:44;8.60;74.80
74364;DHT22;62797;49.740;10.154;2023-04-21T01:27:13;8.60;74.40
74364;DHT22;62797;49.740;10.154;2023-04-21T01:29:41;8.70;73.20
74364;DHT22;62797;49.740;10.154;2023-04-21T01:32:10;8.70;72.50
74364;DHT22;62797;49.740;10.154;2023-04-21T01:34:36;8.70;71.90
74364;DHT22;62797;49.740;10.154;2023-04-21T01:37:02;8.60;72.60
74364;DHT22;62797;49.740;10.154;2023-04-21T01:39:28;8.60;72.30
74364;DHT22;62797;49.740;10.154;2023-04-21T01:41:55;8.60;72.40
74364;DHT22;62797;49.740;10.154;2023-04-21T01:44:25;8.70;72.60
74364;DHT22;62797;49.740;10.154;2023-04-21T01:46:51;8.70;73.30
74364;DHT22;62797;49.740;10.154;2023-04-21T01:49:17;8.60;74.10
74364;DHT22;62797;49.740;10.154;2023-04-21T01:51:43;8.60;73.90
74364;DHT22;62797;49.740;10.154;2023-04-21T01:54:09;8.60;73.20
74364;DHT22;62797;49.740;10.154;2023-04-21T01:56:34;8.60;73.00
74364;DHT22;62797;49.740;10.154;2023-04-21T01:59:00;8.60;71.90
74364;DHT22;62797;49.740;10.154;2023-04-21T02:01:26;8.60;71.60
74364;DHT22;62797;49.740;10.154;2023-04-21T02:03:51;8.50;72.40
74364;DHT22;62797;49.740;10.154;2023-04-21T02:06:17;8.50;71.80
74364;DHT22;62797;49.740;10.154;2023-04-21T02:08:42;8.50;73.50
74364;DHT22;62797;49.740;10.154;2023-04-21T02:11:08;8.50;73.50
74364;DHT22;62797;49.740;10.154;2023-04-21T02:13:34;8.50;73.10
74364;DHT22;62797;49.740;10.154;2023-04-21T02:16:00;8.50;72.80
74364;DHT22;62797;49.740;10.154;2023-04-21T02:18:25;8.60;72.00
74364;DHT22;62797;49.740;10.154;2023-04-21T02:20:54;8.50;72.80
74364;DHT22;62797;49.740;10.154;2023-04-21T02:23:20;8.50;72.70
74364;DHT22;62797;49.740;10.154;2023-04-21T02:25:47;8.50;73.70
74364;DHT22;62797;49.740;10.154;2023-04-21T02:28:12;8.50;73.10
74364;DHT22;62797;49.740;10.154;2023-04-21T02:30:38;8.60;72.90
74364;DHT22;62797;49.740;10.154;2023-04-21T02:33:04;8.60;72.00
74364;DHT22;62797;49.740;10.154;2023-04-21T02:35:30;8.60;72.30
74364;DHT22;62797;49.740;10.154;2023-04-21T02:37:58;8.60;72.50
74364;DHT22;62797;49.740;10.154;2023-04-21T02:40:23;8.50;73.40
74364;DHT22;62797;49.740;10.154;2023-04-21T02:42:51;8.60;72.50
74364;DHT22;62797;49.740;10.154;2023-04-21T02:45:16;8.60;72.30
74364;DHT22;62797;49.740;10.154;2023-04-21T02:47:43;8.60;72.60
74364;DHT22;62797;49.740;10.154;2023-04-21T02:50:09;8.60;72.30
74364;DHT22;62797;49.740;10.154;2023-04-21T02:52:35;8.60;73.40
74364;DHT22;62797;49.740;10.154;2023-04-21T02:55:02;8.60;73.60
74364;DHT22;62797;49.740;10.154;2023-04-21T02:57:29;8.70;72.40
74364;DHT22;62797;49.740;10.154;2023-04-21T02:59:54;8.70;71.90
74364;DHT22;62797;49.740;10.154;2023-04-21T03:02:20;8.70;72.40
74364;DHT22;62797;49.740;10.154;2023-04-21T03:04:46;8.60;72.10
74364;DHT22;62797;49.740;10.154;2023-04-21T03:07:12;8.70;71.80
74364;DHT22;62797;49.740;10.154;2023-04-21T03:09:38;8.70;72.60
74364;DHT22;62797;49.740;10.154;2023-04-21T03:12:04;8.80;72.40
74364;DHT22;62797;49.740;10.154;2023-04-21T03:14:30;8.70;73.40
74364;DHT22;62797;49.740;10.154;2023-04-21T03:16:55;8.70;73.60
74364;DHT22;62797;49.740;10.154;2023-04-21T03:19:21;8.70;74.60
74364;DHT22;62797;49.740;10.154;2023-04-21T03:21:46;8.60;74.60
74364;DHT22;62797;49.740;10.154;2023-04-21T03:24:12;8.70;74.50
74364;DHT22;62797;49.740;10.154;2023-04-21T03:26:39;8.60;74.50
74364;DHT22;62797;49.740;10.154;2023-04-21T03:29:05;8.60;74.60
74364;DHT22;62797;49.740;10.154;2023-04-21T03:31:31;8.70;74.60
74364;DHT22;62797;49.740;10.154;2023-04-21T03:33:57;8.70;73.80
74364;DHT22;62797;49.740;10.154;2023-04-21T03:36:23;8.80;74.00
74364;DHT22;62797;49.740;10.154;2023-04-21T03:38:49;8.80;73.10
74364;DHT22;62797;49.740;10.154;2023-04-21T03:41:15;8.80;73.30
74364;DHT22;62797;49.740;10.154;2023-04-21T03:43:42;8.70;74.00
74364;DHT22;62797;49.740;10.154;2023-04-21T03:46:09;8.70;73.70
74364;DHT22;62797;49.740;10.154;2023-04-21T03:48:41;8.60;73.40
74364;DHT22;62797;49.740;10.154;2023-04-21T03:51:06;8.60;73.50
74364;DHT22;62797;49.740;10.154;2023-04-21T03:53:32;8.60;73.10
74364;DHT22;62797;49.740;10.154;2023-04-21T03:55:58;8.60;73.30
74364;DHT22;62797;49.740;10.154;2023-04-21T03:58:23;8.60;73.40
74364;DHT22;62797;49.740;10.154;2023-04-21T04:00:49;8.60;74.30
74364;DHT22;62797;49.740;10.154;2023-04-21T04:03:14;8.50;74.00
74364;DHT22;62797;49.740;10.154;2023-04-21T04:05:40;8.50;74.40
74364;DHT22;62797;49.740;10.154;2023-04-21T04:08:05;8.50;74.10
74364;DHT22;62797;49.740;10.154;2023-04-21T04:10:31;8.50;73.70
74364;DHT22;62797;49.740;10.154;2023-04-21T04:12:57;8.50;73.10
74364;DHT22;62797;49.740;10.154;2023-04-21T04:15:22;8.50;73.20
74364;DHT22;62797;49.740;10.154;2023-04-21T04:17:48;8.40;73.50
74364;DHT22;62797;49.740;10.154;2023-04-21T04:20:14;8.30;73.70
74364;DHT22;62797;49.740;10.154;2023-04-21T04:22:39;8.30;74.00
74364;DHT22;62797;49.740;10.154;2023-04-21T04:25:05;8.30;73.40
74364;DHT22;62797;49.740;10.154;2023-04-21T04:27:30;8.20;74.00
74364;DHT22;62797;49.740;10.154;2023-04-21T04:29:56;8.20;74.30
74364;DHT22;62797;49.740;10.154;2023-04-21T04:32:22;8.10;74.80
74364;DHT22;62797;49.740;10.154;2023-04-21T04:34:49;8.00;74.50
74364;DHT22;62797;49.740;10.154;2023-04-21T04:37:16;8.00;75.10
74364;DHT22;62797;49.740;10.154;2023-04-21T04:39:42;7.90;75.50
74364;DHT22;62797;49.740;10.154;2023-04-21T04:42:07;7.80;76.00
74364;DHT22;62797;49.740;10.154;2023-04-21T04:44:34;7.90;77.00
74364;DHT22;62797;49.740;10.154;2023-04-21T04:47:01;7.90;76.90
74364;DHT22;62797;49.740;10.154;2023-04-21T04:49:26;7.90;77.30
74364;DHT22;62797;49.740;10.154;2023-04-21T04:51:52;7.90;77.40
74364;DHT22;62797;49.740;10.154;2023-04-21T04:54:17;8.00;77.80
74364;DHT22;62797;49.740;10.154;2023-04-21T04:56:43;8.10;77.60
74364;DHT22;62797;49.740;10.154;2023-04-21T04:59:09;8.20;77.20
74364;DHT22;62797;49.740;10.154;2023-04-21T05:01:35;8.30;77.20
74364;DHT22;62797;49.740;10.154;2023-04-21T05:04:02;8.30;76.80
74364;DHT22;62797;49.740;10.154;2023-04-21T05:06:28;8.40;76.80
74364;DHT22;62797;49.740;10.154;2023-04-21T05:08:56;8.60;76.50
74364;DHT22;62797;49.740;10.154;2023-04-21T05:11:22;8.60;75.90
74364;DHT22;62797;49.740;10.154;2023-04-21T05:13:48;8.70;75.10
74364;DHT22;62797;49.740;10.154;2023-04-21T05:16:13;8.70;75.10
74364;DHT22;62797;49.740;10.154;2023-04-21T05:18:39;8.70;74.50
74364;DHT22;62797;49.740;10.154;2023-04-21T05:21:05;8.80;75.10
74364;DHT22;62797;49.740;10.154;2023-04-21T05:23:30;8.80;74.90
74364;DHT22;62797;49.740;10.154;2023-04-21T05:25:56;8.90;75.40
74364;DHT22;62797;49.740;10.154;2023-04-21T05:28:22;9.00;76.10
74364;DHT22;62797;49.740;10.154;2023-04-21T05:30:47;9.20;75.20
74364;DHT22;62797;49.740;10.154;2023-04-21T05:33:13;9.20;74.20
74364;DHT22;62797;49.740;10.154;2023-04-21T05:35:39;9.20;72.60
74364;DHT22;62797;49.740;10.154;2023-04-21T05:38:05;9.20;73.50
74364;DHT22;62797;49.740;10.154;2023-04-21T05:40:30;9.30;73.40
74364;DHT22;62797;49.740;10.154;2023-04-21T05:42:56;9.40;73.90
74364;DHT22;62797;49.740;10.154;2023-04-21T05:45:21;9.40;74.00
74364;DHT22;62797;49.740;10.154;2023-04-21T05:47:48;9.50;73.30
74364;DHT22;62797;49.740;10.154;2023-04-21T05:50:13;9.50;72.80
74364;DHT22;62797;49.740;10.154;2023-04-21T05:52:39;9.60;73.40
74364;DHT22;62797;49.740;10.154;2023-04-21T05:55:05;9.70;73.00
74364;DHT22;62797;49.740;10.154;2023-04-21T05:57:31;9.70;72.00
74364;DHT22;62797;49.740;10.154;2023-04-21T05:59:57;9.80;71.60
74364;DHT22;62797;49.740;10.154;2023-04-21T06:02:23;9.90;70.70
74364;DHT22;62797;49.740;10.154;2023-04-21T06:04:48;10.00;68.70
74364;DHT22;62797;49.740;10.154;2023-04-21T06:07:14;10.00;69.30
74364;DHT22;62797;49.740;10.154;2023-04-21T06:09:40;10.00;67.60
74364;DHT22;62797;49.740;10.154;2023-04-21T06:12:08;10.10;67.00
74364;DHT22;62797;49.740;10.154;2023-04-21T06:14:33;10.00;65.90
74364;DHT22;62797;49.740;10.154;2023-04-21T06:16:59;9.90;66.70
74364;DHT22;62797;49.740;10.154;2023-04-21T06:19:25;10.00;65.80
74364;DHT22;62797;49.740;10.154;2023-04-21T06:21:52;9.90;66.80
74364;DHT22;62797;49.740;10.154;2023-04-21T06:24:18;10.00;66.50
74364;DHT22;62797;49.740;10.154;2023-04-21T06:26:50;10.00;65.80
74364;DHT22;62797;49.740;10.154;2023-04-21T06:29:16;9.70;66.20
74364;DHT22;62797;49.740;10.154;2023-04-21T06:31:42;9.70;66.80
74364;DHT22;62797;49.740;10.154;2023-04-21T06:34:07;9.80;67.00
74364;DHT22;62797;49.740;10.154;2023-04-21T06:36:33;9.80;66.50
74364;DHT22;62797;49.740;10.154;2023-04-21T06:38:59;9.80;66.70
74364;DHT22;62797;49.740;10.154;2023-04-21T06:41:24;9.90;66.50
74364;DHT22;62797;49.740;10.154;2023-04-21T06:43:50;9.90;65.90
74364;DHT22;62797;49.740;10.154;2023-04-21T06:46:16;10.10;66.60
74364;DHT22;62797;49.740;10.154;2023-04-21T06:48:42;10.20;67.70
74364;DHT22;62797;49.740;10.154;2023-04-21T06:51:08;10.20;67.40
74364;DHT22;62797;49.740;10.154;2023-04-21T06:53:33;10.40;67.00
74364;DHT22;62797;49.740;10.154;2023-04-21T06:55:59;10.50;68.00
74364;DHT22;62797;49.740;10.154;2023-04-21T06:58:25;10.60;66.30
74364;DHT22;62797;49.740;10.154;2023-04-21T07:00:50;10.70;65.20
74364;DHT22;62797;49.740;10.154;2023-04-21T07:03:16;10.80;65.30
74364;DHT22;62797;49.740;10.154;2023-04-21T07:05:42;10.80;66.00
74364;DHT22;62797;49.740;10.154;2023-04-21T07:08:07;10.90;65.10
74364;DHT22;62797;49.740;10.154;2023-04-21T07:10:33;11.00;64.00
74364;DHT22;62797;49.740;10.154;2023-04-21T07:12:58;11.10;65.00
74364;DHT22;62797;49.740;10.154;2023-04-21T07:15:24;11.30;62.60
74364;DHT22;62797;49.740;10.154;2023-04-21T07:17:50;11.30;61.00
74364;DHT22;62797;49.740;10.154;2023-04-21T07:20:15;11.30;60.70
74364;DHT22;62797;49.740;10.154;2023-04-21T07:22:43;11.30;61.20
74364;DHT22;62797;49.740;10.154;2023-04-21T07:25:09;11.30;59.60
74364;DHT22;62797;49.740;10.154;2023-04-21T07:27:35;11.40;60.20
74364;DHT22;62797;49.740;10.154;2023-04-21T07:30:03;11.40;59.20
74364;DHT22;62797;49.740;10.154;2023-04-21T07:32:28;11.40;58.60
74364;DHT22;62797;49.740;10.154;2023-04-21T07:34:54;11.40;59.10
74364;DHT22;62797;49.740;10.154;2023-04-21T07:37:19;11.50;59.10
74364;DHT22;62797;49.740;10.154;2023-04-21T07:39:46;11.40;59.00
74364;DHT22;62797;49.740;10.154;2023-04-21T07:42:12;11.40;58.90
74364;DHT22;62797;49.740;10.154;2023-04-21T07:44:38;11.40;57.20
74364;DHT22;62797;49.740;10.154;2023-04-21T07:47:04;11.30;57.40
74364;DHT22;62797;49.740;10.154;2023-04-21T07:49:30;11.40;57.30
74364;DHT22;62797;49.740;10.154;2023-04-21T07:55:25;11.50;58.70
74364;DHT22;62797;49.740;10.154;2023-04-21T07:57:50;11.60;58.50
74364;DHT22;62797;49.740;10.154;2023-04-21T08:00:16;11.60;58.00
74364;DHT22;62797;49.740;10.154;2023-04-21T08:02:42;11.80;58.30
74364;DHT22;62797;49.740;10.154;2023-04-21T08:05:07;11.90;58.80
74364;DHT22;62797;49.740;10.154;2023-04-21T08:07:33;12.10;57.10
74364;DHT22;62797;49.740;10.154;2023-04-21T08:09:59;12.30;55.60
74364;DHT22;62797;49.740;10.154;2023-04-21T08:12:25;12.40;56.80
74364;DHT22;62797;49.740;10.154;2023-04-21T08:14:51;12.60;56.80
74364;DHT22;62797;49.740;10.154;2023-04-21T08:17:16;12.60;55.40
74364;DHT22;62797;49.740;10.154;2023-04-21T08:19:42;12.70;55.90
74364;DHT22;62797;49.740;10.154;2023-04-21T08:22:08;12.70;53.70
74364;DHT22;62797;49.740;10.154;2023-04-21T08:24:34;12.70;53.10
74364;DHT22;62797;49.740;10.154;2023-04-21T08:26:59;12.90;53.50
74364;DHT22;62797;49.740;10.154;2023-04-21T08:29:27;13.00;52.10
74364;DHT22;62797;49.740;10.154;2023-04-21T08:31:53;13.20;53.20
74364;DHT22;62797;49.740;10.154;2023-04-21T08:34:18;13.20;52.40
74364;DHT22;62797;49.740;10.154;2023-04-21T08:36:44;13.40;50.00
74364;DHT22;62797;49.740;10.154;2023-04-21T08:39:13;13.50;49.80
74364;DHT22;62797;49.740;10.154;2023-04-21T08:41:38;13.50;48.40
74364;DHT22;62797;49.740;10.154;2023-04-21T08:44:10;13.50;48.40
74364;DHT22;62797;49.740;10.154;2023-04-21T08:46:36;13.50;46.80
74364;DHT22;62797;49.740;10.154;2023-04-21T08:49:02;13.60;48.30
74364;DHT22;62797;49.740;10.154;2023-04-21T08:51:28;13.70;45.90
74364;DHT22;62797;49.740;10.154;2023-04-21T08:53:55;13.80;45.80
74364;DHT22;62797;49.740;10.154;2023-04-21T08:56:22;13.90;47.10
74364;DHT22;62797;49.740;10.154;2023-04-21T08:58:48;14.10;47.20
74364;DHT22;62797;49.740;10.154;2023-04-21T09:01:14;14.40;46.20
74364;DHT22;62797;49.740;10.154;2023-04-21T09:03:40;14.60;44.90
74364;DHT22;62797;49.740;10.154;2023-04-21T09:06:07;14.90;43.00
74364;DHT22;62797;49.740;10.154;2023-04-21T09:08:36;15.20;43.20
74364;DHT22;62797;49.740;10.154;2023-04-21T09:11:02;15.40;40.00
74364;DHT22;62797;49.740;10.154;2023-04-21T09:15:55;15.40;38.00
74364;DHT22;62797;49.740;10.154;2023-04-21T09:18:22;15.50;38.60
74364;DHT22;62797;49.740;10.154;2023-04-21T09:20:51;15.70;38.20
74364;DHT22;62797;49.740;10.154;2023-04-21T09:23:17;15.80;36.50
74364;DHT22;62797;49.740;10.154;2023-04-21T09:25:45;15.70;36.00
74364;DHT22;62797;49.740;10.154;2023-04-21T09:28:12;15.60;35.20
74364;DHT22;62797;49.740;10.154;2023-04-21T09:30:40;15.60;36.40
74364;DHT22;62797;49.740;10.154;2023-04-21T09:33:06;15.60;37.40
74364;DHT22;62797;49.740;10.154;2023-04-21T09:35:34;15.80;36.40
74364;DHT22;62797;49.740;10.154;2023-04-21T09:38:01;15.90;35.20
74364;DHT22;62797;49.740;10.154;2023-04-21T09:40:29;16.00;35.90
74364;DHT22;62797;49.740;10.154;2023-04-21T09:42:54;15.90;33.20
74364;DHT22;62797;49.740;10.154;2023-04-21T09:45:25;15.80;33.00
74364;DHT22;62797;49.740;10.154;2023-04-21T09:47:54;15.70;34.30
74364;DHT22;62797;49.740;10.154;2023-04-21T09:50:22;15.70;34.00
74364;DHT22;62797;49.740;10.154;2023-04-21T09:52:54;15.80;35.30
74364;DHT22;62797;49.740;10.154;2023-04-21T09:55:26;15.90;34.00
74364;DHT22;62797;49.740;10.154;2023-04-21T09:57:57;16.20;34.10
74364;DHT22;62797;49.740;10.154;2023-04-21T10:00:26;16.30;33.10
74364;DHT22;62797;49.740;10.154;2023-04-21T10:02:57;16.40;32.60
74364;DHT22;62797;49.740;10.154;2023-04-21T10:05:25;16.40;31.20
74364;DHT22;62797;49.740;10.154;2023-04-21T10:07:51;16.40;32.30
74364;DHT22;62797;49.740;10.154;2023-04-21T10:10:22;16.70;33.40
74364;DHT22;62797;49.740;10.154;2023-04-21T10:12:49;16.90;30.40
74364;DHT22;62797;49.740;10.154;2023-04-21T10:15:37;17.10;32.00
74364;DHT22;62797;49.740;10.154;2023-04-21T10:18:18;17.40;29.90
74364;DHT22;62797;49.740;10.154;2023-04-21T10:26:12;17.90;28.20
74364;DHT22;62797;49.740;10.154;2023-04-21T10:36:33;18.10;28.20
74364;DHT22;62797;49.740;10.154;2023-04-21T10:39:02;18.30;27.70
74364;DHT22;62797;49.740;10.154;2023-04-21T10:41:29;18.50;27.10
74364;DHT22;62797;49.740;10.154;2023-04-21T10:43:59;18.50;26.00
74364;DHT22;62797;49.740;10.154;2023-04-21T10:49:10;19.20;25.50
74364;DHT22;62797;49.740;10.154;2023-04-21T10:54:24;19.60;23.70
74364;DHT22;62797;49.740;10.154;2023-04-21T10:56:53;19.70;23.40
74364;DHT22;62797;49.740;10.154;2023-04-21T10:59:20;19.50;23.30
74364;DHT22;62797;49.740;10.154;2023-04-21T11:01:46;19.70;24.40
74364;DHT22;62797;49.740;10.154;2023-04-21T11:04:15;19.80;22.70
74364;DHT22;62797;49.740;10.154;2023-04-21T11:06:43;20.00;23.90
74364;DHT22;62797;49.740;10.154;2023-04-21T11:09:08;20.20;21.10
74364;DHT22;62797;49.740;10.154;2023-04-21T11:11:35;20.30;22.10
74364;DHT22;62797;49.740;10.154;2023-04-21T11:14:01;20.60;22.30
74364;DHT22;62797;49.740;10.154;2023-04-21T11:16:27;20.90;22.70
74364;DHT22;62797;49.740;10.154;2023-04-21T11:18:55;21.20;22.90
74364;DHT22;62797;49.740;10.154;2023-04-21T11:21:21;21.20;20.80
74364;DHT22;62797;49.740;10.154;2023-04-21T11:23:52;21.40;20.50
74364;DHT22;62797;49.740;10.154;2023-04-21T11:26:21;21.00;21.40
74364;DHT22;62797;49.740;10.154;2023-04-21T11:28:53;20.80;21.30
74364;DHT22;62797;49.740;10.154;2023-04-21T11:31:19;20.60;22.50
74364;DHT22;62797;49.740;10.154;2023-04-21T11:33:44;20.80;21.80
74364;DHT22;62797;49.740;10.154;2023-04-21T11:36:10;21.00;21.50
74364;DHT22;62797;49.740;10.154;2023-04-21T11:38:37;21.00;20.90
74364;DHT22;62797;49.740;10.154;2023-04-21T11:41:03;21.00;22.80
74364;DHT22;62797;49.740;10.154;2023-04-21T11:43:29;21.30;21.50
74364;DHT22;62797;49.740;10.154;2023-04-21T11:46:09;21.60;19.20
74364;DHT22;62797;49.740;10.154;2023-04-21T11:48:34;21.40;20.50
74364;DHT22;62797;49.740;10.154;2023-04-21T11:51:00;21.30;20.70
74364;DHT22;62797;49.740;10.154;2023-04-21T11:53:28;21.40;21.90
74364;DHT22;62797;49.740;10.154;2023-04-21T11:55:54;21.40;19.70
74364;DHT22;62797;49.740;10.154;2023-04-21T11:58:21;21.20;19.70
74364;DHT22;62797;49.740;10.154;2023-04-21T12:00:46;21.00;20.20
74364;DHT22;62797;49.740;10.154;2023-04-21T12:03:14;20.90;20.70
74364;DHT22;62797;49.740;10.154;2023-04-21T12:05:40;21.00;19.80
74364;DHT22;62797;49.740;10.154;2023-04-21T12:08:12;21.10;20.10
74364;DHT22;62797;49.740;10.154;2023-04-21T12:10:43;21.50;19.20
74364;DHT22;62797;49.740;10.154;2023-04-21T12:13:09;21.80;18.50
74364;DHT22;62797;49.740;10.154;2023-04-21T12:15:35;22.10;17.60
74364;DHT22;62797;49.740;10.154;2023-04-21T12:18:00;22.60;16.30
74364;DHT22;62797;49.740;10.154;2023-04-21T12:20:28;22.70;15.80
74364;DHT22;62797;49.740;10.154;2023-04-21T12:22:53;22.90;15.20
74364;DHT22;62797;49.740;10.154;2023-04-21T12:25:21;23.00;14.70
74364;DHT22;62797;49.740;10.154;2023-04-21T12:27:58;23.20;14.90
74364;DHT22;62797;49.740;10.154;2023-04-21T12:30:23;23.30;14.00
74364;DHT22;62797;49.740;10.154;2023-04-21T12:32:49;23.50;14.70
74364;DHT22;62797;49.740;10.154;2023-04-21T12:35:16;23.50;13.60
74364;DHT22;62797;49.740;10.154;2023-04-21T12:37:43;23.50;13.40
74364;DHT22;62797;49.740;10.154;2023-04-21T12:40:08;23.60;14.40
74364;DHT22;62797;49.740;10.154;2023-04-21T12:42:34;23.70;14.20
74364;DHT22;62797;49.740;10.154;2023-04-21T12:45:00;23.80;14.80
74364;DHT22;62797;49.740;10.154;2023-04-21T12:47:25;24.10;14.50
74364;DHT22;62797;49.740;10.154;2023-04-21T12:49:51;24.40;14.00
74364;DHT22;62797;49.740;10.154;2023-04-21T12:52:17;24.40;12.30
74364;DHT22;62797;49.740;10.154;2023-04-21T12:54:42;24.30;13.40
74364;DHT22;62797;49.740;10.154;2023-04-21T12:57:09;24.50;13.10
74364;DHT22;62797;49.740;10.154;2023-04-21T12:59:34;24.60;12.80
74364;DHT22;62797;49.740;10.154;2023-04-21T13:02:00;24.70;13.00
74364;DHT22;62797;49.740;10.154;2023-04-21T13:04:26;24.90;12.30
74364;DHT22;62797;49.740;10.154;2023-04-21T13:06:51;24.90;11.60
74364;DHT22;62797;49.740;10.154;2023-04-21T13:09:17;25.00;12.50
74364;DHT22;62797;49.740;10.154;2023-04-21T13:11:43;24.90;12.40
74364;DHT22;62797;49.740;10.154;2023-04-21T13:14:09;24.70;11.50
74364;DHT22;62797;49.740;10.154;2023-04-21T13:16:35;24.60;12.20
74364;DHT22;62797;49.740;10.154;2023-04-21T13:19:01;24.60;12.50
74364;DHT22;62797;49.740;10.154;2023-04-21T13:21:26;24.60;12.60
74364;DHT22;62797;49.740;10.154;2023-04-21T13:23:52;24.70;13.10
74364;DHT22;62797;49.740;10.154;2023-04-21T13:26:18;25.00;12.30
74364;DHT22;62797;49.740;10.154;2023-04-21T13:28:43;25.00;11.90
74364;DHT22;62797;49.740;10.154;2023-04-21T13:31:09;25.20;11.90
74364;DHT22;62797;49.740;10.154;2023-04-21T13:33:35;25.10;12.00
74364;DHT22;62797;49.740;10.154;2023-04-21T13:36:02;25.40;11.30
74364;DHT22;62797;49.740;10.154;2023-04-21T13:38:28;25.30;11.50
74364;DHT22;62797;49.740;10.154;2023-04-21T13:40:54;25.20;10.70
74364;DHT22;62797;49.740;10.154;2023-04-21T13:43:19;24.90;10.10
74364;DHT22;62797;49.740;10.154;2023-04-21T13:45:45;24.60;11.70
74364;DHT22;62797;49.740;10.154;2023-04-21T13:48:12;24.60;11.30
74364;DHT22;62797;49.740;10.154;2023-04-21T13:50:38;24.60;10.70
74364;DHT22;62797;49.740;10.154;2023-04-21T13:53:03;24.60;11.70
74364;DHT22;62797;49.740;10.154;2023-04-21T13:55:30;25.50;12.40
74364;DHT22;62797;49.740;10.154;2023-04-21T13:57:57;26.30;10.90
74364;DHT22;62797;49.740;10.154;2023-04-21T14:00:23;26.90;7.50
74364;DHT22;62797;49.740;10.154;2023-04-21T14:02:48;27.00;7.60
74364;DHT22;62797;49.740;10.154;2023-04-21T14:05:14;27.10;8.20
74364;DHT22;62797;49.740;10.154;2023-04-21T14:07:41;26.70;8.10
74364;DHT22;62797;49.740;10.154;2023-04-21T14:10:08;26.70;7.50
74364;DHT22;62797;49.740;10.154;2023-04-21T14:12:33;26.50;7.10
74364;DHT22;62797;49.740;10.154;2023-04-21T14:14:59;25.90;8.20
74364;DHT22;62797;49.740;10.154;2023-04-21T14:17:27;25.50;9.20
74364;DHT22;62797;49.740;10.154;2023-04-21T14:19:52;25.10;9.90
74364;DHT22;62797;49.740;10.154;2023-04-21T14:22:18;25.10;9.70
74364;DHT22;62797;49.740;10.154;2023-04-21T14:24:44;25.20;9.30
74364;DHT22;62797;49.740;10.154;2023-04-21T14:27:10;25.80;8.80
74364;DHT22;62797;49.740;10.154;2023-04-21T14:29:36;26.60;8.80
74364;DHT22;62797;49.740;10.154;2023-04-21T14:32:02;27.20;6.90
74364;DHT22;62797;49.740;10.154;2023-04-21T14:34:27;27.20;5.80
74364;DHT22;62797;49.740;10.154;2023-04-21T14:36:53;27.00;6.90
74364;DHT22;62797;49.740;10.154;2023-04-21T14:39:19;27.40;6.40
74364;DHT22;62797;49.740;10.154;2023-04-21T14:41:44;27.80;7.70
74364;DHT22;62797;49.740;10.154;2023-04-21T14:44:10;28.40;6.60
74364;DHT22;62797;49.740;10.154;2023-04-21T14:46:36;28.30;6.30
74364;DHT22;62797;49.740;10.154;2023-04-21T14:49:02;28.10;6.30
74364;DHT22;62797;49.740;10.154;2023-04-21T14:51:28;27.90;6.70
74364;DHT22;62797;49.740;10.154;2023-04-21T14:53:54;28.10;6.50
74364;DHT22;62797;49.740;10.154;2023-04-21T14:56:19;28.20;6.00
74364;DHT22;62797;49.740;10.154;2023-04-21T14:58:45;27.80;6.60
74364;DHT22;62797;49.740;10.154;2023-04-21T15:01:10;28.10;7.20
74364;DHT22;62797;49.740;10.154;2023-04-21T15:03:36;28.50;6.00
74364;DHT22;62797;49.740;10.154;2023-04-21T15:06:03;28.70;4.20
74364;DHT22;62797;49.740;10.154;2023-04-21T15:08:28;28.50;5.30
74364;DHT22;62797;49.740;10.154;2023-04-21T15:10:55;28.60;5.80
74364;DHT22;62797;49.740;10.154;2023-04-21T15:13:21;28.90;4.60
74364;DHT22;62797;49.740;10.154;2023-04-21T15:15:49;29.10;3.20
74364;DHT22;62797;49.740;10.154;2023-04-21T15:18:17;29.00;3.70
74364;DHT22;62797;49.740;10.154;2023-04-21T15:20:43;29.10;3.80
74364;DHT22;62797;49.740;10.154;2023-04-21T15:23:09;29.50;3.70
74364;DHT22;62797;49.740;10.154;2023-04-21T15:25:36;29.50;2.40
74364;DHT22;62797;49.740;10.154;2023-04-21T15:28:01;29.10;3.90
74364;DHT22;62797;49.740;10.154;2023-04-21T15:30:27;29.00;2.90
74364;DHT22;62797;49.740;10.154;2023-04-21T15:32:52;29.00;4.20
74364;DHT22;62797;49.740;10.154;2023-04-21T15:35:18;28.80;3.20
74364;DHT22;62797;49.740;10.154;2023-04-21T15:37:44;28.60;4.20
74364;DHT22;62797;49.740;10.154;2023-04-21T15:40:10;28.70;3.10
74364;DHT22;62797;49.740;10.154;2023-04-21T15:42:36;28.60;4.20
74364;DHT22;62797;49.740;10.154;2023-04-21T15:45:01;29.00;4.40